New Hope, Pennsylvania
Current Conditions -  °F | °C
As of 12:53 PM on Monday 24 Nov 2014 (Local Time) from KTTN Reporting Station
Clear Clear  
Wind Chill: 71°   Ceiling: Unl
Heat Index: 71°   Visibility: 10mi
Dew Point: 58°   Wind: 26mph
Humidity: 63%   Direction: 210°SSW
Pressure: 29.61"   Gusts: 37mph
Location:  40.36°N, 74.95°W
Report Text: KTTN 241753Z 21023G32KT 10SM CLR 22/14 A2961 RMK AO2 PK WND 21032/1752 SLP019 T02170144 10217 20178 58021
Loading
Personal Weather Stations






























Interactive Weather Map New forecast layout! Learn more

10-Day Weather Forecast

Advertisements
Track Severe Weather on mobile